createdAt,value
2017-12-03T00:02:11.907Z,17.58
2017-12-03T00:04:38.535Z,18.10
2017-12-03T00:07:05.133Z,17.85
2017-12-03T00:09:31.765Z,17.98
2017-12-03T00:11:58.366Z,18.37
2017-12-03T00:14:24.979Z,17.62
2017-12-03T00:16:51.554Z,17.98
2017-12-03T00:19:18.202Z,18.75
2017-12-03T00:21:44.782Z,17.40
2017-12-03T00:24:11.728Z,19.05
2017-12-03T00:26:38.330Z,19.08
2017-12-03T00:29:04.955Z,19.30
2017-12-03T00:31:31.522Z,19.45
2017-12-03T00:33:58.171Z,19.27
2017-12-03T00:36:24.795Z,19.58
2017-12-03T00:38:51.402Z,19.30
2017-12-03T00:41:18.068Z,19.33
2017-12-03T00:43:44.654Z,20.58
2017-12-03T00:46:11.285Z,19.00
2017-12-03T00:48:37.891Z,18.60
2017-12-03T00:51:04.503Z,18.70
2017-12-03T00:53:31.086Z,18.98
2017-12-03T00:55:58.017Z,18.30
2017-12-03T00:58:24.605Z,18.27
2017-12-03T01:00:51.217Z,18.95
2017-12-03T01:03:17.858Z,18.12
2017-12-03T01:05:44.443Z,19.17
2017-12-03T01:08:11.022Z,18.65
2017-12-03T01:10:37.667Z,18.98
2017-12-03T01:13:04.293Z,19.70
2017-12-03T01:15:30.865Z,18.50
2017-12-03T01:17:57.469Z,18.48
2017-12-03T01:20:24.049Z,20.08
2017-12-03T01:22:50.666Z,18.95
2017-12-03T01:25:17.279Z,18.90
2017-12-03T01:27:43.900Z,19.00
2017-12-03T01:30:10.482Z,20.20
2017-12-03T01:32:37.396Z,18.92
2017-12-03T01:35:04.013Z,20.20
2017-12-03T01:37:30.601Z,20.75
2017-12-03T01:39:57.210Z,19.12
2017-12-03T01:42:23.790Z,19.43
2017-12-03T01:44:50.412Z,20.00
2017-12-03T01:47:17.055Z,20.40
2017-12-03T01:49:43.968Z,19.35
2017-12-03T01:52:10.544Z,19.80
2017-12-03T01:54:37.183Z,19.70
2017-12-03T01:57:04.082Z,20.73
2017-12-03T01:59:30.698Z,19.90
2017-12-03T02:01:57.366Z,20.40
2017-12-03T02:04:23.979Z,21.05
2017-12-03T02:06:50.562Z,20.12
2017-12-03T02:09:17.178Z,20.60
2017-12-03T02:11:43.771Z,20.70
2017-12-03T02:14:10.391Z,20.85
2017-12-03T02:16:37.025Z,20.30
2017-12-03T02:19:03.660Z,21.83
2017-12-03T02:21:30.570Z,20.62
2017-12-03T02:23:57.182Z,21.37
2017-12-03T02:26:24.800Z,20.98
2017-12-03T02:28:51.417Z,20.07
2017-12-03T02:31:18.351Z,21.52
2017-12-03T02:33:44.963Z,22.17
2017-12-03T02:36:11.553Z,20.50
2017-12-03T02:38:38.162Z,21.90
2017-12-03T02:41:04.746Z,21.20
2017-12-03T02:43:31.330Z,20.85
2017-12-03T02:45:58.282Z,22.70
2017-12-03T02:48:24.878Z,21.60
2017-12-03T02:50:51.466Z,21.30
2017-12-03T02:53:18.101Z,21.30
2017-12-03T02:55:44.898Z,20.67
2017-12-03T02:58:11.787Z,21.40
2017-12-03T03:00:38.423Z,21.52
2017-12-03T03:03:05.003Z,21.37
2017-12-03T03:05:31.667Z,22.37
2017-12-03T03:07:58.258Z,22.60
2017-12-03T03:10:24.862Z,20.50
2017-12-03T03:12:51.449Z,21.83
2017-12-03T03:15:18.057Z,21.30
2017-12-03T03:17:44.650Z,21.10
2017-12-03T03:20:11.271Z,20.65
2017-12-03T03:22:37.878Z,21.30
2017-12-03T03:25:04.461Z,21.00
2017-12-03T03:27:31.083Z,21.00
2017-12-03T03:29:57.727Z,20.17
2017-12-03T03:32:24.297Z,23.02
2017-12-03T03:34:50.911Z,21.27
2017-12-03T03:37:17.789Z,20.95
2017-12-03T03:39:44.385Z,21.80
2017-12-03T03:42:10.977Z,21.12
2017-12-03T03:44:37.615Z,22.20
2017-12-03T03:47:04.198Z,21.90
2017-12-03T03:49:30.798Z,21.37
2017-12-03T03:51:57.443Z,22.45
2017-12-03T03:54:24.083Z,21.27
2017-12-03T03:56:50.697Z,21.73
2017-12-03T03:59:17.331Z,20.62
2017-12-03T04:01:43.950Z,22.42
2017-12-03T04:04:10.534Z,22.10
2017-12-03T04:06:37.138Z,21.83
2017-12-03T04:09:03.752Z,23.40
2017-12-03T04:11:30.338Z,23.50
2017-12-03T04:13:57.258Z,23.12
2017-12-03T04:16:23.855Z,21.67
2017-12-03T04:18:50.471Z,22.90
2017-12-03T04:21:17.076Z,22.17
2017-12-03T04:23:44.027Z,22.05
2017-12-03T04:26:10.970Z,21.62
2017-12-03T04:28:37.581Z,22.90
2017-12-03T04:31:04.191Z,22.37
2017-12-03T04:33:31.092Z,23.08
2017-12-03T04:35:57.727Z,23.50
2017-12-03T04:38:24.313Z,21.97
2017-12-03T04:40:50.919Z,24.40
2017-12-03T04:43:17.538Z,23.40
2017-12-03T04:45:44.378Z,23.08
2017-12-03T04:48:10.997Z,25.27
2017-12-03T04:50:37.615Z,24.30
2017-12-03T04:53:04.194Z,25.33
2017-12-03T04:55:30.794Z,23.98
2017-12-03T04:57:57.402Z,26.02
2017-12-03T05:00:23.993Z,26.65
2017-12-03T05:02:50.608Z,26.12
2017-12-03T05:05:17.258Z,25.40
2017-12-03T05:07:43.875Z,25.50
2017-12-03T05:10:10.487Z,26.90
2017-12-03T05:12:37.119Z,26.43
2017-12-03T05:15:03.730Z,26.80
2017-12-03T05:17:30.318Z,26.75
2017-12-03T05:19:56.971Z,25.52
2017-12-03T05:22:23.587Z,26.23
2017-12-03T05:24:50.205Z,26.40
2017-12-03T05:27:16.811Z,24.23
2017-12-03T05:29:43.406Z,24.42
2017-12-03T05:32:10.014Z,25.45
2017-12-03T05:34:36.659Z,24.75
2017-12-03T05:37:03.268Z,26.30
2017-12-03T05:39:29.891Z,23.73
2017-12-03T05:41:56.760Z,24.80
2017-12-03T05:44:23.364Z,24.63
2017-12-03T05:46:49.967Z,23.53
2017-12-03T05:49:16.578Z,24.77
2017-12-03T05:51:43.178Z,23.98
2017-12-03T05:54:10.051Z,23.40
2017-12-03T05:56:36.923Z,23.87
2017-12-03T05:59:03.505Z,23.20
2017-12-03T06:01:30.093Z,23.43
2017-12-03T06:03:56.739Z,24.12
2017-12-03T06:06:23.334Z,23.75
2017-12-03T06:08:49.942Z,24.10
2017-12-03T06:11:16.771Z,24.15
2017-12-03T06:13:43.342Z,24.37
2017-12-03T06:16:09.967Z,24.30
2017-12-03T06:18:36.595Z,25.25
2017-12-03T06:21:03.222Z,23.73
2017-12-03T06:23:29.798Z,23.65
2017-12-03T06:25:56.435Z,22.23
2017-12-03T06:28:23.052Z,23.10
2017-12-03T06:30:49.649Z,24.33
2017-12-03T06:33:16.279Z,23.98
2017-12-03T06:35:42.892Z,22.63
2017-12-03T06:38:09.498Z,21.95
2017-12-03T06:40:36.155Z,23.27
2017-12-03T06:43:02.742Z,22.90
2017-12-03T06:45:29.322Z,21.80
2017-12-03T06:47:55.946Z,21.30
2017-12-03T06:50:22.542Z,23.50
2017-12-03T06:52:49.167Z,22.50
2017-12-03T06:55:15.779Z,22.60
2017-12-03T06:57:42.651Z,21.00
2017-12-03T07:00:09.486Z,22.85
2017-12-03T07:02:36.132Z,22.08
2017-12-03T07:05:02.723Z,21.23
2017-12-03T07:07:29.309Z,21.30
2017-12-03T07:09:55.917Z,21.03
2017-12-03T07:12:22.505Z,20.10
2017-12-03T07:14:49.098Z,20.58
2017-12-03T07:17:15.705Z,20.60
2017-12-03T07:19:42.290Z,20.77
2017-12-03T07:22:08.906Z,20.70
2017-12-03T07:24:35.514Z,20.30
2017-12-03T07:27:02.106Z,21.35
2017-12-03T07:29:28.686Z,20.43
2017-12-03T07:31:55.331Z,19.83
2017-12-03T07:34:21.992Z,19.87
2017-12-03T07:36:48.858Z,19.37
2017-12-03T07:39:15.473Z,18.85
2017-12-03T07:41:42.347Z,18.40
2017-12-03T07:44:08.922Z,18.12
2017-12-03T07:46:35.822Z,17.40
2017-12-03T07:49:02.414Z,17.60
2017-12-03T07:51:29.010Z,17.80
2017-12-03T07:53:55.641Z,18.60
2017-12-03T07:56:22.229Z,16.77
2017-12-03T07:58:48.822Z,15.43
2017-12-03T08:01:15.441Z,15.60
2017-12-03T08:03:42.041Z,15.13
2017-12-03T08:06:08.637Z,15.93
2017-12-03T08:08:35.284Z,14.85
2017-12-03T08:11:01.874Z,14.70
2017-12-03T08:13:28.750Z,13.00
2017-12-03T08:15:55.351Z,13.50
2017-12-03T08:18:22.227Z,12.60
2017-12-03T08:20:48.832Z,12.60
2017-12-03T08:23:15.469Z,13.43
2017-12-03T08:25:42.341Z,12.10
2017-12-03T08:28:08.967Z,12.35
2017-12-03T08:30:35.569Z,11.40
2017-12-03T08:33:02.480Z,11.40
2017-12-03T08:35:29.053Z,11.40
2017-12-03T08:37:55.662Z,11.30
2017-12-03T08:40:22.292Z,11.70
2017-12-03T08:42:48.914Z,11.23
2017-12-03T08:45:15.517Z,10.90
2017-12-03T08:47:42.106Z,10.30
2017-12-03T08:50:08.699Z,10.57
2017-12-03T08:52:35.343Z,10.65
2017-12-03T08:55:01.956Z,11.10
2017-12-03T08:57:28.584Z,11.30
2017-12-03T08:59:55.267Z,10.30
2017-12-03T09:02:21.847Z,10.43
2017-12-03T09:04:48.656Z,10.95
2017-12-03T09:07:15.270Z,10.25
2017-12-03T09:09:41.895Z,10.57
2017-12-03T09:12:08.551Z,11.70
2017-12-03T09:14:35.658Z,10.30
2017-12-03T09:17:02.266Z,10.18
2017-12-03T09:19:28.883Z,10.23
2017-12-03T09:21:55.487Z,11.30
2017-12-03T09:24:22.115Z,10.25
2017-12-03T09:26:48.735Z,10.20
2017-12-03T09:29:15.654Z,10.70
2017-12-03T09:31:43.018Z,10.82
2017-12-03T09:34:09.638Z,10.10
2017-12-03T09:36:36.257Z,10.43
2017-12-03T09:39:02.872Z,9.75
2017-12-03T09:41:29.456Z,9.70
2017-12-03T09:43:56.087Z,9.90
2017-12-03T09:46:22.944Z,9.27
2017-12-03T09:48:49.571Z,9.63
2017-12-03T09:51:16.177Z,9.60
2017-12-03T09:53:42.788Z,10.10
2017-12-03T09:56:09.400Z,10.05
2017-12-03T09:58:36.013Z,10.52
2017-12-03T10:01:02.874Z,10.95
2017-12-03T10:03:29.465Z,9.90
2017-12-03T10:05:56.119Z,9.38
2017-12-03T10:08:22.698Z,9.80
2017-12-03T10:10:49.327Z,10.18
2017-12-03T10:13:15.930Z,10.18
2017-12-03T10:15:42.806Z,9.57
2017-12-03T10:18:09.431Z,9.60
2017-12-03T10:20:36.062Z,8.90
2017-12-03T10:23:02.650Z,9.23
2017-12-03T10:25:29.571Z,9.30
2017-12-03T10:27:56.166Z,9.60
2017-12-03T10:30:22.783Z,8.90
2017-12-03T10:32:49.436Z,9.80
2017-12-03T10:35:16.035Z,9.43
2017-12-03T10:37:48.571Z,9.10
2017-12-03T10:40:15.154Z,9.20
2017-12-03T10:42:41.779Z,9.57
2017-12-03T10:45:08.392Z,9.73
2017-12-03T10:47:35.250Z,9.10
2017-12-03T10:50:01.860Z,9.15
2017-12-03T10:52:28.736Z,8.47
2017-12-03T10:54:55.372Z,8.07
2017-12-03T10:57:21.951Z,8.43
2017-12-03T10:59:48.549Z,8.88
2017-12-03T11:02:15.195Z,8.30
2017-12-03T11:04:41.791Z,8.50
2017-12-03T11:07:08.403Z,8.05
2017-12-03T11:09:35.006Z,7.60
2017-12-03T11:12:01.597Z,8.18
2017-12-03T11:14:28.289Z,8.00
2017-12-03T11:16:54.915Z,7.68
2017-12-03T11:19:21.501Z,7.30
2017-12-03T11:21:48.116Z,7.70
2017-12-03T11:24:14.707Z,8.20
2017-12-03T11:26:41.320Z,7.25
2017-12-03T11:29:07.902Z,7.60
2017-12-03T11:31:34.539Z,7.20
2017-12-03T11:34:01.378Z,7.45
2017-12-03T11:36:27.963Z,7.45
2017-12-03T11:38:54.607Z,10.35
2017-12-03T11:41:21.186Z,7.68
2017-12-03T11:43:47.762Z,7.93
2017-12-03T11:46:14.675Z,6.60
2017-12-03T11:48:41.282Z,7.40
2017-12-03T11:51:07.882Z,7.50
2017-12-03T11:53:34.790Z,7.35
2017-12-03T11:56:01.374Z,7.53
2017-12-03T11:58:27.956Z,7.35
2017-12-03T12:00:54.561Z,7.32
2017-12-03T12:03:21.139Z,7.35
2017-12-03T12:05:47.747Z,7.47
2017-12-03T12:08:14.383Z,7.30
2017-12-03T12:10:40.958Z,8.38
2017-12-03T12:13:07.535Z,7.70
2017-12-03T12:15:34.172Z,7.57
2017-12-03T12:18:00.761Z,9.02
2017-12-03T12:20:27.342Z,8.30
2017-12-03T12:22:53.980Z,8.53
2017-12-03T12:25:20.887Z,8.80
2017-12-03T12:27:47.465Z,8.35
2017-12-03T12:30:14.082Z,8.40
2017-12-03T12:32:40.696Z,8.40
2017-12-03T12:35:07.591Z,9.10
2017-12-03T12:37:34.174Z,9.17
2017-12-03T12:40:01.028Z,9.10
2017-12-03T12:42:27.632Z,9.90
2017-12-03T12:44:54.511Z,9.68
2017-12-03T12:47:21.661Z,9.40
2017-12-03T12:49:48.474Z,8.60
2017-12-03T12:52:15.273Z,8.60
2017-12-03T12:54:42.137Z,9.37
2017-12-03T12:57:08.937Z,8.50
2017-12-03T12:59:35.792Z,8.70
2017-12-03T13:02:02.719Z,8.88
2017-12-03T13:04:29.761Z,9.20
2017-12-03T13:06:56.573Z,8.50
2017-12-03T13:09:23.354Z,8.97
2017-12-03T13:11:50.176Z,9.03
2017-12-03T13:14:17.011Z,9.27
2017-12-03T13:16:43.790Z,13.25
2017-12-03T13:19:10.625Z,10.75
2017-12-03T13:21:37.465Z,10.60
2017-12-03T13:24:04.250Z,10.68
2017-12-03T13:26:31.042Z,11.48
2017-12-03T13:28:57.862Z,11.55
2017-12-03T13:31:24.699Z,13.27
2017-12-03T13:33:51.501Z,13.98
2017-12-03T13:36:18.332Z,15.43
2017-12-03T13:38:45.127Z,14.40
2017-12-03T13:41:11.924Z,15.73
2017-12-03T13:43:38.738Z,15.45
2017-12-03T13:46:05.528Z,15.75
2017-12-03T13:48:32.351Z,16.60
2017-12-03T13:50:59.205Z,16.33
2017-12-03T13:53:25.954Z,17.20
2017-12-03T13:55:52.776Z,17.00
2017-12-03T13:58:19.618Z,16.70
2017-12-03T14:00:46.410Z,18.80
2017-12-03T14:03:13.234Z,19.55
2017-12-03T14:05:40.068Z,18.37
2017-12-03T14:08:06.896Z,17.33
2017-12-03T14:10:33.722Z,15.60
2017-12-03T14:13:00.537Z,16.87
2017-12-03T14:15:27.598Z,18.80
2017-12-03T14:17:54.399Z,17.20
2017-12-03T14:20:21.247Z,16.23
2017-12-03T14:22:48.076Z,17.40
2017-12-03T14:25:14.895Z,17.85
2017-12-03T14:27:41.934Z,17.85
2017-12-03T14:30:09.075Z,20.07
2017-12-03T14:32:35.886Z,19.00
2017-12-03T14:35:02.735Z,20.08
2017-12-03T14:37:29.802Z,18.50
2017-12-03T14:39:56.591Z,18.75
2017-12-03T14:42:23.699Z,20.88
2017-12-03T14:44:50.497Z,24.95
2017-12-03T14:47:17.340Z,29.45
2017-12-03T14:49:44.240Z,25.52
2017-12-03T14:52:11.018Z,23.42
2017-12-03T14:54:37.858Z,25.75
2017-12-03T14:57:04.709Z,34.53
2017-12-03T14:59:31.510Z,31.90
2017-12-03T15:01:58.343Z,29.08
2017-12-03T15:04:25.161Z,32.05
2017-12-03T15:06:51.963Z,30.20
2017-12-03T15:09:18.787Z,38.72
2017-12-03T15:11:45.606Z,36.20
2017-12-03T15:14:12.453Z,39.77
2017-12-03T15:16:39.244Z,46.47
2017-12-03T15:19:06.086Z,32.07
2017-12-03T15:21:32.921Z,36.53
2017-12-03T15:23:59.725Z,29.00
2017-12-03T15:26:26.609Z,38.53
2017-12-03T15:28:53.459Z,42.13
2017-12-03T15:31:20.296Z,47.33
2017-12-03T15:33:47.307Z,53.03
2017-12-03T15:36:14.129Z,29.85
2017-12-03T15:38:40.980Z,31.27
2017-12-03T15:41:07.851Z,65.68
2017-12-03T15:43:34.666Z,41.72
2017-12-03T15:46:01.523Z,68.55
2017-12-03T15:48:28.387Z,59.30
2017-12-03T15:50:55.186Z,34.17
2017-12-03T15:53:22.037Z,41.60
2017-12-03T15:55:48.907Z,55.25
2017-12-03T15:58:15.732Z,37.30
2017-12-03T16:00:42.530Z,57.83
2017-12-03T16:03:09.385Z,64.15
2017-12-03T16:05:36.255Z,45.53
2017-12-03T16:08:03.067Z,57.10
2017-12-03T16:10:29.939Z,53.30
2017-12-03T16:12:56.783Z,48.30
2017-12-03T16:15:23.595Z,42.33
2017-12-03T16:17:50.459Z,59.53
2017-12-03T16:20:17.267Z,46.40
2017-12-03T16:22:44.107Z,69.03
2017-12-03T16:25:10.976Z,46.13
2017-12-03T16:27:37.766Z,53.77
2017-12-03T16:30:04.893Z,61.78
2017-12-03T16:32:31.805Z,48.08
2017-12-03T16:34:58.610Z,54.67
2017-12-03T16:37:25.415Z,54.55
2017-12-03T16:39:52.267Z,69.97
2017-12-03T16:42:19.110Z,62.33
2017-12-03T16:44:45.893Z,67.63
2017-12-03T16:47:12.718Z,67.30
2017-12-03T16:49:39.548Z,62.25
2017-12-03T16:52:06.376Z,52.65
2017-12-03T16:54:33.215Z,76.12
2017-12-03T16:57:00.030Z,46.78
2017-12-03T16:59:26.845Z,45.80
2017-12-03T17:01:53.687Z,64.68
2017-12-03T17:04:20.509Z,67.65
2017-12-03T17:06:47.382Z,89.87
2017-12-03T17:09:14.222Z,68.82
2017-12-03T17:11:41.051Z,56.88
2017-12-03T17:14:08.185Z,64.47
2017-12-03T17:16:35.330Z,74.10
2017-12-03T17:19:02.136Z,58.05
2017-12-03T17:21:28.946Z,63.75
2017-12-03T17:23:55.781Z,62.53
2017-12-03T17:26:22.907Z,61.78
2017-12-03T17:28:49.738Z,53.83
2017-12-03T17:31:16.611Z,56.88
2017-12-03T17:33:43.716Z,50.78
2017-12-03T17:36:10.498Z,51.35
2017-12-03T17:38:37.367Z,51.88
2017-12-03T17:41:04.203Z,48.85
2017-12-03T17:43:31.006Z,52.55
2017-12-03T17:45:58.165Z,57.28
2017-12-03T17:48:25.004Z,45.55
2017-12-03T17:50:51.839Z,45.72
2017-12-03T17:53:18.670Z,53.45
2017-12-03T17:55:45.495Z,45.58
2017-12-03T17:58:12.335Z,43.70
2017-12-03T18:00:39.187Z,43.92
2017-12-03T18:03:06.008Z,42.45
2017-12-03T18:05:32.800Z,44.17
2017-12-03T18:07:59.618Z,43.40
2017-12-03T18:10:26.441Z,41.47
2017-12-03T18:12:53.271Z,41.00
2017-12-03T18:15:20.137Z,42.60
2017-12-03T18:17:46.951Z,40.40
2017-12-03T18:20:13.781Z,41.33
2017-12-03T18:22:40.631Z,39.53
2017-12-03T18:25:07.426Z,41.13
2017-12-03T18:27:34.302Z,41.53
2017-12-03T18:30:01.135Z,41.10
2017-12-03T18:32:28.007Z,38.85
2017-12-03T18:34:54.815Z,37.15
2017-12-03T18:37:21.671Z,38.47
2017-12-03T18:39:48.470Z,37.22
2017-12-03T18:42:15.274Z,39.40
2017-12-03T18:44:42.117Z,41.05
2017-12-03T18:47:08.926Z,38.00
2017-12-03T18:49:35.728Z,37.23
2017-12-03T18:52:02.583Z,36.63
2017-12-03T18:54:29.378Z,38.30
2017-12-03T18:56:56.179Z,36.00
2017-12-03T18:59:23.047Z,36.42
2017-12-03T19:01:49.888Z,35.90
2017-12-03T19:04:16.755Z,36.10
2017-12-03T19:06:43.581Z,34.75
2017-12-03T19:09:10.398Z,35.70
2017-12-03T19:11:37.237Z,32.70
2017-12-03T19:14:04.081Z,32.60
2017-12-03T19:16:30.915Z,31.90
2017-12-03T19:18:57.752Z,31.53
2017-12-03T19:21:24.946Z,34.47
2017-12-03T19:23:52.096Z,33.38
2017-12-03T19:26:18.897Z,30.27
2017-12-03T19:28:45.942Z,27.55
2017-12-03T19:31:13.914Z,26.45
2017-12-03T19:33:40.759Z,25.30
2017-12-03T19:36:07.579Z,24.87
2017-12-03T19:38:34.407Z,25.67
2017-12-03T19:41:01.210Z,24.58
2017-12-03T19:43:28.084Z,22.55
2017-12-03T19:45:54.894Z,22.87
2017-12-03T19:48:21.697Z,23.13
2017-12-03T19:50:48.544Z,21.02
2017-12-03T19:53:15.648Z,22.35
2017-12-03T19:55:42.459Z,22.23
2017-12-03T19:58:09.337Z,22.90
2017-12-03T20:00:36.147Z,21.60
2017-12-03T20:03:02.961Z,22.00
2017-12-03T20:05:29.812Z,22.10
2017-12-03T20:07:56.663Z,23.35
2017-12-03T20:10:23.473Z,23.10
2017-12-03T20:12:50.332Z,21.90
2017-12-03T20:15:17.439Z,23.05
2017-12-03T20:17:44.254Z,22.87
2017-12-03T20:20:11.121Z,21.40
2017-12-03T20:22:37.925Z,22.37
2017-12-03T20:25:04.759Z,23.08
2017-12-03T20:27:31.568Z,22.70
2017-12-03T20:29:58.374Z,23.23
2017-12-03T20:32:25.199Z,23.05
2017-12-03T20:34:52.043Z,19.90
2017-12-03T20:37:18.854Z,20.10
2017-12-03T20:39:45.683Z,19.35
2017-12-03T20:42:12.815Z,18.73
2017-12-03T20:44:39.653Z,18.97
2017-12-03T20:47:06.446Z,18.73
2017-12-03T20:49:33.282Z,17.48
2017-12-03T20:52:00.139Z,17.48
2017-12-03T20:54:26.967Z,19.67
2017-12-03T20:56:53.887Z,17.30
2017-12-03T20:59:20.617Z,20.10
2017-12-03T21:01:47.661Z,17.48
2017-12-03T21:04:14.514Z,16.20
2017-12-03T21:06:41.412Z,14.70
2017-12-03T21:09:08.289Z,14.18
2017-12-03T21:11:35.086Z,13.70
2017-12-03T21:14:01.960Z,12.40
2017-12-03T21:16:28.873Z,11.50
2017-12-03T21:18:55.762Z,11.67
2017-12-03T21:21:22.921Z,11.27
2017-12-03T21:23:49.741Z,10.30
2017-12-03T21:26:16.607Z,9.80
2017-12-03T21:28:43.388Z,10.10
2017-12-03T21:31:10.216Z,10.83
2017-12-03T21:33:37.338Z,10.35
2017-12-03T21:36:04.191Z,10.97
2017-12-03T21:38:30.970Z,11.40
2017-12-03T21:40:57.798Z,11.60
2017-12-03T21:43:24.644Z,12.40
2017-12-03T21:45:51.758Z,10.98
2017-12-03T21:48:18.589Z,10.10
2017-12-03T21:50:45.411Z,10.68
2017-12-03T21:53:12.235Z,9.68
2017-12-03T21:55:39.086Z,9.98
2017-12-03T21:58:05.921Z,10.68
2017-12-03T22:00:33.018Z,13.18
2017-12-03T22:02:59.862Z,12.63
2017-12-03T22:05:26.695Z,10.70
2017-12-03T22:07:53.488Z,11.15
2017-12-03T22:10:20.359Z,11.80
2017-12-03T22:12:47.181Z,11.77
2017-12-03T22:15:13.997Z,11.95
2017-12-03T22:17:40.806Z,13.60
2017-12-03T22:20:07.975Z,11.48
2017-12-03T22:22:34.819Z,10.57
2017-12-03T22:25:01.666Z,9.88
2017-12-03T22:27:28.487Z,10.60
2017-12-03T22:29:55.295Z,8.80
2017-12-03T22:32:22.111Z,8.53
2017-12-03T22:34:48.903Z,9.00
2017-12-03T22:37:15.719Z,8.85
2017-12-03T22:39:42.594Z,10.07
2017-12-03T22:42:09.394Z,14.52
2017-12-03T22:44:36.251Z,10.35
2017-12-03T22:47:03.108Z,10.43
2017-12-03T22:49:30.195Z,10.68
2017-12-03T22:51:57.011Z,10.20
2017-12-03T22:54:23.835Z,12.02
2017-12-03T22:56:50.667Z,12.98
2017-12-03T22:59:17.771Z,14.30
2017-12-03T23:01:44.593Z,14.98
2017-12-03T23:04:11.414Z,14.60
2017-12-03T23:06:38.250Z,13.98
2017-12-03T23:09:05.083Z,14.65
2017-12-03T23:11:31.912Z,14.48
2017-12-03T23:13:58.760Z,15.07
2017-12-03T23:16:25.566Z,13.60
2017-12-03T23:18:52.514Z,13.62
2017-12-03T23:21:19.667Z,13.40
2017-12-03T23:23:46.506Z,13.95
2017-12-03T23:26:13.339Z,12.15
2017-12-03T23:28:40.138Z,12.02
2017-12-03T23:31:07.249Z,11.32
2017-12-03T23:33:34.035Z,11.65
2017-12-03T23:36:01.091Z,10.60
2017-12-03T23:38:27.971Z,10.35
2017-12-03T23:40:54.768Z,11.25
2017-12-03T23:43:21.567Z,10.60
2017-12-03T23:45:48.428Z,10.52
2017-12-03T23:48:15.214Z,10.45
2017-12-03T23:50:42.030Z,11.00
2017-12-03T23:53:09.891Z,10.15
2017-12-03T23:55:36.699Z,10.60
2017-12-03T23:58:03.506Z,10.95
